Williamsport Regional Airport
KIPT : now visible

Airfield :











YOU CAN JOIN US ON...

 
LOGIN :

Register | Disclaimer

   EN    FR    IT 

 









Legend :    VFR   Marginal VFR   IFR   Intensive IFR   Very Intensive IFR
Visi :
Ceiling :
>= 8 km
>= 3000ft
5 to 8 km
1000 to 3000 ft
1500m to 5 km
500 to 1000 ft
800 to 1500m
200 to 500 ft
< 800m
< 200 ft
Symbols :   Thunderstorms  Fog  Heavy snow  Heavy precipitations  Wind > 20 kt






- Airport Elevation : 529 ft
- IATA code : IPT


KIPT - Williamsport Regional

CURRENT METAR :
  • 291254Z 00000KT 10SM CLR 18/12 A3024 RMK AO2 SLP238 T01780117

EXPIRED METARs :
  • 291154Z 00000KT 10SM CLR 16/12 A3023 RMK AO2 SLP236 T01560117 10156 20117 50008
  • 291054Z 00000KT 10SM CLR 13/11 A3024 RMK AO2 SLP238 T01330111
  • 290954Z AUTO 33003KT 10SM CLR 12/11 A3023 RMK AO2 SLP235 T01220106

TAF KIPT
Valid from the 29 at 12:00 until the 30 at 12:00 UTC


291128Z 2912/3012 12006KT P6SM FEW250
FM291600 23008G15KT P6SM BKN100
FM292300 27006KT P6SM FEW050
KZNY FIR / North America



MET'MAP, your aeronautical weather chart ! - Copyright ORBIFLY December 2007 - Disclaimer

ORBIFLY MET'MAP TEAM :

Programming & Development : Alexandra Zaïnal
Original concept : Baudouin d'Aumeries
Technical & hardware support : Manuel Goepfert
Assistance : Marc-Olivier Méhu




SOURCES & CREDITS :

   NOAA       Earth
Advisory